DSV weather

Dansville Municipal Airport
Dansville, New York, United States

Public forecast

Using degrees Fahrenheit for public forecast. Weather courtesy of forecast.io.

METAR (pilot weather report)

Retrieved 2019/04/26 15:38 UTC (0 seconds ago):

KDSV 261538Z AUTO 16010KT 10SM SCT028 18/12 A2931 RMK AO2 T01780122

TAF (pilot weather forecast)

Closest forecast is Greater Rochester International Airport, 33.0 nm (61.0 km) N. Retrieved 2019/04/26 12:22 UTC (3 hours ago):

TAF KROC 261120Z 2612/2712 15010KT P6SM VCSH SCT040 BKN070 FM261500 17012G20KT P6SM VCSH BKN040 FM262000 19016G28KT 6SM -SHRA BR BKN025 FM262300 24015G25KT P6SM VCSH OVC015 FM270300 27020G28KT P6SM OVC015